sensor_id;sensor_type;location;lat;lon;timestamp;pressure;altitude;pressure_sealevel;temperature;humidity
71970;BME280;59838;52.152;5.436;2022-12-13T00:00:55;101479.31;;;-6.90;100.00
71970;BME280;59838;52.152;5.436;2022-12-13T00:03:22;101487.84;;;-6.93;100.00
71970;BME280;59838;52.152;5.436;2022-12-13T00:05:48;101497.16;;;-6.95;100.00
71970;BME280;59838;52.152;5.436;2022-12-13T00:08:15;101499.03;;;-7.00;100.00
71970;BME280;59838;52.152;5.436;2022-12-13T00:10:45;101487.34;;;-7.03;100.00
71970;BME280;59838;52.152;5.436;2022-12-13T00:13:12;101487.38;;;-7.04;100.00
71970;BME280;59838;52.152;5.436;2022-12-13T00:15:38;101486.53;;;-7.05;100.00
71970;BME280;59838;52.152;5.436;2022-12-13T00:18:05;101481.50;;;-7.05;100.00
71970;BME280;59838;52.152;5.436;2022-12-13T00:20:31;101478.16;;;-7.05;100.00
71970;BME280;59838;52.152;5.436;2022-12-13T00:22:57;101478.22;;;-7.07;100.00
71970;BME280;59838;52.152;5.436;2022-12-13T00:25:24;101471.63;;;-7.11;100.00
71970;BME280;59838;52.152;5.436;2022-12-13T00:27:51;101473.31;;;-7.11;100.00
71970;BME280;59838;52.152;5.436;2022-12-13T00:30:17;101479.31;;;-7.14;100.00
71970;BME280;59838;52.152;5.436;2022-12-13T00:32:44;101465.84;;;-7.14;100.00
71970;BME280;59838;52.152;5.436;2022-12-13T00:35:10;101461.69;;;-7.15;100.00
71970;BME280;59838;52.152;5.436;2022-12-13T00:37:37;101473.47;;;-7.16;100.00
71970;BME280;59838;52.152;5.436;2022-12-13T00:40:03;101470.16;;;-7.18;100.00
71970;BME280;59838;52.152;5.436;2022-12-13T00:42:30;101462.66;;;-7.20;100.00
71970;BME280;59838;52.152;5.436;2022-12-13T00:44:56;101464.34;;;-7.20;100.00
71970;BME280;59838;52.152;5.436;2022-12-13T00:47:25;101463.47;;;-7.19;100.00
71970;BME280;59838;52.152;5.436;2022-12-13T00:49:51;101456.84;;;-7.22;100.00
71970;BME280;59838;52.152;5.436;2022-12-13T00:52:21;101451.88;;;-7.25;100.00
71970;BME280;59838;52.152;5.436;2022-12-13T00:54:51;101447.75;;;-7.27;100.00
71970;BME280;59838;52.152;5.436;2022-12-13T00:57:17;101452.00;;;-7.28;100.00
71970;BME280;59838;52.152;5.436;2022-12-13T00:59:44;101459.63;;;-7.29;100.00
71970;BME280;59838;52.152;5.436;2022-12-13T01:02:10;101448.75;;;-7.31;100.00
71970;BME280;59838;52.152;5.436;2022-12-13T01:04:37;101443.66;;;-7.30;100.00
71970;BME280;59838;52.152;5.436;2022-12-13T01:07:04;101443.59;;;-7.28;100.00
71970;BME280;59838;52.152;5.436;2022-12-13T01:09:30;101449.50;;;-7.29;100.00
71970;BME280;59838;52.152;5.436;2022-12-13T01:12:01;101454.72;;;-7.34;100.00
71970;BME280;59838;52.152;5.436;2022-12-13T01:14:28;101454.00;;;-7.38;100.00
71970;BME280;59838;52.152;5.436;2022-12-13T01:16:55;101444.81;;;-7.40;100.00
71970;BME280;59838;52.152;5.436;2022-12-13T01:19:26;101449.06;;;-7.41;100.00
71970;BME280;59838;52.152;5.436;2022-12-13T01:21:59;101454.06;;;-7.39;100.00
71970;BME280;59838;52.152;5.436;2022-12-13T01:24:27;101460.75;;;-7.38;100.00
71970;BME280;59838;52.152;5.436;2022-12-13T01:26:54;101462.50;;;-7.40;100.00
71970;BME280;59838;52.152;5.436;2022-12-13T01:29:23;101457.53;;;-7.42;100.00
71970;BME280;59838;52.152;5.436;2022-12-13T01:31:52;101459.19;;;-7.42;100.00
71970;BME280;59838;52.152;5.436;2022-12-13T01:34:20;101451.69;;;-7.44;100.00
71970;BME280;59838;52.152;5.436;2022-12-13T01:36:53;101451.78;;;-7.47;100.00
71970;BME280;59838;52.152;5.436;2022-12-13T01:39:23;101442.56;;;-7.48;100.00
71970;BME280;59838;52.152;5.436;2022-12-13T01:41:53;101438.41;;;-7.49;100.00
71970;BME280;59838;52.152;5.436;2022-12-13T01:44:57;101443.50;;;-7.50;100.00
71970;BME280;59838;52.152;5.436;2022-12-13T01:50:06;101441.97;;;-7.55;100.00
71970;BME280;59838;52.152;5.436;2022-12-13T01:52:35;101447.06;;;-7.56;100.00
71970;BME280;59838;52.152;5.436;2022-12-13T01:55:03;101442.06;;;-7.58;100.00
71970;BME280;59838;52.152;5.436;2022-12-13T01:57:32;101445.44;;;-7.59;100.00
71970;BME280;59838;52.152;5.436;2022-12-13T02:00:00;101442.91;;;-7.59;100.00
71970;BME280;59838;52.152;5.436;2022-12-13T02:02:26;101445.44;;;-7.59;100.00
71970;BME280;59838;52.152;5.436;2022-12-13T02:05:03;101437.97;;;-7.62;100.00
71970;BME280;59838;52.152;5.436;2022-12-13T02:07:33;101449.81;;;-7.64;100.00
71970;BME280;59838;52.152;5.436;2022-12-13T02:10:03;101445.69;;;-7.66;100.00
71970;BME280;59838;52.152;5.436;2022-12-13T02:12:33;101439.81;;;-7.67;100.00
71970;BME280;59838;52.152;5.436;2022-12-13T02:15:04;101446.47;;;-7.64;100.00
71970;BME280;59838;52.152;5.436;2022-12-13T02:17:40;101443.78;;;-7.60;100.00
71970;BME280;59838;52.152;5.436;2022-12-13T02:20:35;101444.59;;;-7.58;100.00
71970;BME280;59838;52.152;5.436;2022-12-13T02:23:35;101440.31;;;-7.56;100.00
71970;BME280;59838;52.152;5.436;2022-12-13T02:26:13;101447.09;;;-7.58;100.00
71970;BME280;59838;52.152;5.436;2022-12-13T02:32:15;101456.25;;;-7.55;100.00
71970;BME280;59838;52.152;5.436;2022-12-13T02:35:04;101444.47;;;-7.55;100.00
71970;BME280;59838;52.152;5.436;2022-12-13T02:37:50;101436.91;;;-7.55;100.00
71970;BME280;59838;52.152;5.436;2022-12-13T02:40:45;101434.53;;;-7.59;100.00
71970;BME280;59838;52.152;5.436;2022-12-13T02:43:24;101431.34;;;-7.64;100.00
71970;BME280;59838;52.152;5.436;2022-12-13T02:46:00;101428.06;;;-7.68;100.00
71970;BME280;59838;52.152;5.436;2022-12-13T02:48:33;101418.06;;;-7.71;100.00
71970;BME280;59838;52.152;5.436;2022-12-13T02:51:03;101423.25;;;-7.74;100.00
71970;BME280;59838;52.152;5.436;2022-12-13T02:53:32;101430.88;;;-7.76;100.00
71970;BME280;59838;52.152;5.436;2022-12-13T02:55:59;101426.63;;;-7.75;100.00
71970;BME280;59838;52.152;5.436;2022-12-13T02:58:29;101424.84;;;-7.72;100.00
71970;BME280;59838;52.152;5.436;2022-12-13T03:01:10;101431.63;;;-7.74;100.00
71970;BME280;59838;52.152;5.436;2022-12-13T03:09:16;101425.88;;;-7.77;100.00
71970;BME280;59838;52.152;5.436;2022-12-13T03:15:21;101426.16;;;-7.86;100.00
71970;BME280;59838;52.152;5.436;2022-12-13T03:17:55;101422.06;;;-7.91;100.00
71970;BME280;59838;52.152;5.436;2022-12-13T03:20:25;101421.25;;;-7.91;100.00
71970;BME280;59838;52.152;5.436;2022-12-13T03:22:52;101427.13;;;-7.91;100.00
71970;BME280;59838;52.152;5.436;2022-12-13T03:25:20;101418.78;;;-7.93;100.00
71970;BME280;59838;52.152;5.436;2022-12-13T03:27:58;101419.66;;;-7.94;100.00
71970;BME280;59838;52.152;5.436;2022-12-13T03:30:27;101419.59;;;-7.92;100.00
71970;BME280;59838;52.152;5.436;2022-12-13T03:32:57;101419.50;;;-7.89;100.00
71970;BME280;59838;52.152;5.436;2022-12-13T03:35:24;101420.34;;;-7.88;100.00
71970;BME280;59838;52.152;5.436;2022-12-13T03:38:00;101425.53;;;-7.93;100.00
71970;BME280;59838;52.152;5.436;2022-12-13T03:40:28;101423.94;;;-7.96;100.00
71970;BME280;59838;52.152;5.436;2022-12-13T03:42:55;101421.50;;;-7.99;100.00
71970;BME280;59838;52.152;5.436;2022-12-13T03:45:25;101416.50;;;-8.00;100.00
71970;BME280;59838;52.152;5.436;2022-12-13T03:47:51;101416.50;;;-8.00;100.00
71970;BME280;59838;52.152;5.436;2022-12-13T03:50:18;101419.91;;;-8.01;100.00
71970;BME280;59838;52.152;5.436;2022-12-13T03:53:00;101414.03;;;-8.02;100.00
71970;BME280;59838;52.152;5.436;2022-12-13T03:55:27;101410.63;;;-8.01;100.00
71970;BME280;59838;52.152;5.436;2022-12-13T03:57:54;101414.03;;;-8.02;100.00
71970;BME280;59838;52.152;5.436;2022-12-13T04:00:21;101414.97;;;-8.04;100.00
71970;BME280;59838;52.152;5.436;2022-12-13T04:02:47;101414.25;;;-8.08;100.00
71970;BME280;59838;52.152;5.436;2022-12-13T04:05:14;101418.47;;;-8.10;100.00
71970;BME280;59838;52.152;5.436;2022-12-13T04:07:41;101421.06;;;-8.12;100.00
71970;BME280;59838;52.152;5.436;2022-12-13T04:10:14;101415.25;;;-8.14;100.00
71970;BME280;59838;52.152;5.436;2022-12-13T04:12:51;101412.72;;;-8.14;100.00
71970;BME280;59838;52.152;5.436;2022-12-13T04:15:36;101419.56;;;-8.17;100.00
71970;BME280;59838;52.152;5.436;2022-12-13T04:18:02;101422.13;;;-8.19;100.00
71970;BME280;59838;52.152;5.436;2022-12-13T04:20:30;101425.56;;;-8.21;100.00
71970;BME280;59838;52.152;5.436;2022-12-13T04:22:57;101412.94;;;-8.21;100.00
71970;BME280;59838;52.152;5.436;2022-12-13T04:25:23;101409.66;;;-8.23;100.00
71970;BME280;59838;52.152;5.436;2022-12-13T04:27:50;101418.09;;;-8.24;100.00
71970;BME280;59838;52.152;5.436;2022-12-13T04:30:16;101413.03;;;-8.24;100.00
71970;BME280;59838;52.152;5.436;2022-12-13T04:32:43;101411.41;;;-8.25;100.00
71970;BME280;59838;52.152;5.436;2022-12-13T04:35:09;101418.00;;;-8.21;100.00
71970;BME280;59838;52.152;5.436;2022-12-13T04:37:36;101418.84;;;-8.21;100.00
71970;BME280;59838;52.152;5.436;2022-12-13T04:40:02;101416.38;;;-8.22;100.00
71970;BME280;59838;52.152;5.436;2022-12-13T04:42:29;101407.97;;;-8.23;100.00
71970;BME280;59838;52.152;5.436;2022-12-13T04:44:56;101410.56;;;-8.26;100.00
71970;BME280;59838;52.152;5.436;2022-12-13T04:47:23;101402.31;;;-8.31;100.00
71970;BME280;59838;52.152;5.436;2022-12-13T04:49:49;101411.69;;;-8.35;100.00
71970;BME280;59838;52.152;5.436;2022-12-13T04:52:16;101407.47;;;-8.34;100.00
71970;BME280;59838;52.152;5.436;2022-12-13T04:54:48;101399.94;;;-8.36;100.00
71970;BME280;59838;52.152;5.436;2022-12-13T04:57:21;101394.09;;;-8.36;100.00
71970;BME280;59838;52.152;5.436;2022-12-13T04:59:48;101403.44;;;-8.40;100.00
71970;BME280;59838;52.152;5.436;2022-12-13T05:02:15;101394.34;;;-8.44;100.00
71970;BME280;59838;52.152;5.436;2022-12-13T05:04:49;101397.72;;;-8.43;100.00
71970;BME280;59838;52.152;5.436;2022-12-13T05:07:19;101389.13;;;-8.39;100.00
71970;BME280;59838;52.152;5.436;2022-12-13T05:09:45;101384.09;;;-8.39;100.00
71970;BME280;59838;52.152;5.436;2022-12-13T05:12:12;101388.31;;;-8.40;100.00
71970;BME280;59838;52.152;5.436;2022-12-13T05:14:48;101380.88;;;-8.43;100.00
71970;BME280;59838;52.152;5.436;2022-12-13T05:17:15;101375.06;;;-8.45;100.00
71970;BME280;59838;52.152;5.436;2022-12-13T05:19:41;101367.53;;;-8.45;100.00
71970;BME280;59838;52.152;5.436;2022-12-13T05:22:09;101371.72;;;-8.46;100.00
71970;BME280;59838;52.152;5.436;2022-12-13T05:24:45;101376.75;;;-8.46;100.00
71970;BME280;59838;52.152;5.436;2022-12-13T05:27:12;101368.41;;;-8.48;100.00
71970;BME280;59838;52.152;5.436;2022-12-13T05:29:53;101367.66;;;-8.50;100.00
71970;BME280;59838;52.152;5.436;2022-12-13T05:32:33;101373.59;;;-8.52;100.00
71970;BME280;59838;52.152;5.436;2022-12-13T05:35:12;101362.72;;;-8.53;100.00
71970;BME280;59838;52.152;5.436;2022-12-13T05:37:48;101372.72;;;-8.51;100.00
71970;BME280;59838;52.152;5.436;2022-12-13T05:40:20;101370.16;;;-8.50;100.00
71970;BME280;59838;52.152;5.436;2022-12-13T05:42:46;101368.41;;;-8.48;100.00
71970;BME280;59838;52.152;5.436;2022-12-13T05:45:14;101368.41;;;-8.48;100.00
71970;BME280;59838;52.152;5.436;2022-12-13T05:47:42;101366.66;;;-8.46;100.00
71970;BME280;59838;52.152;5.436;2022-12-13T05:50:09;101365.00;;;-8.45;100.00
71970;BME280;59838;52.152;5.436;2022-12-13T05:52:36;101360.72;;;-8.43;100.00
71970;BME280;59838;52.152;5.436;2022-12-13T05:55:02;101359.84;;;-8.42;100.00
71970;BME280;59838;52.152;5.436;2022-12-13T05:57:29;101363.13;;;-8.40;100.00
71970;BME280;59838;52.152;5.436;2022-12-13T05:59:55;101361.31;;;-8.36;100.00
71970;BME280;59838;52.152;5.436;2022-12-13T06:02:22;101360.47;;;-8.35;100.00
71970;BME280;59838;52.152;5.436;2022-12-13T06:04:49;101362.97;;;-8.35;100.00
71970;BME280;59838;52.152;5.436;2022-12-13T06:07:15;101365.56;;;-8.37;100.00
71970;BME280;59838;52.152;5.436;2022-12-13T06:09:42;101367.34;;;-8.40;100.00
71970;BME280;59838;52.152;5.436;2022-12-13T06:12:08;101365.75;;;-8.43;100.00
71970;BME280;59838;52.152;5.436;2022-12-13T06:14:55;101368.34;;;-8.44;100.00
71970;BME280;59838;52.152;5.436;2022-12-13T06:17:34;101371.59;;;-8.42;100.00
71970;BME280;59838;52.152;5.436;2022-12-13T06:20:03;101363.16;;;-8.41;100.00
71970;BME280;59838;52.152;5.436;2022-12-13T06:22:50;101364.94;;;-8.43;100.00
71970;BME280;59838;52.152;5.436;2022-12-13T06:25:18;101364.03;;;-8.42;100.00
71970;BME280;59838;52.152;5.436;2022-12-13T06:27:58;101364.16;;;-8.46;100.00
71970;BME280;59838;52.152;5.436;2022-12-13T06:30:27;101359.28;;;-8.50;100.00
71970;BME280;59838;52.152;5.436;2022-12-13T06:32:54;101357.63;;;-8.51;100.00
71970;BME280;59838;52.152;5.436;2022-12-13T06:35:20;101360.22;;;-8.54;100.00
71970;BME280;59838;52.152;5.436;2022-12-13T06:37:55;101359.41;;;-8.55;100.00
71970;BME280;59838;52.152;5.436;2022-12-13T06:40:28;101347.69;;;-8.56;100.00
71970;BME280;59838;52.152;5.436;2022-12-13T06:42:55;101350.19;;;-8.56;100.00
71970;BME280;59838;52.152;5.436;2022-12-13T06:45:22;101352.72;;;-8.56;100.00
71970;BME280;59838;52.152;5.436;2022-12-13T06:47:48;101355.19;;;-8.54;100.00
71970;BME280;59838;52.152;5.436;2022-12-13T06:50:14;101356.00;;;-8.54;100.00
71970;BME280;59838;52.152;5.436;2022-12-13T06:52:41;101356.91;;;-8.55;100.00
71970;BME280;59838;52.152;5.436;2022-12-13T06:55:08;101355.22;;;-8.56;100.00
71970;BME280;59838;52.152;5.436;2022-12-13T06:57:34;101364.50;;;-8.56;100.00
71970;BME280;59838;52.152;5.436;2022-12-13T07:00:02;101358.66;;;-8.58;100.00
71970;BME280;59838;52.152;5.436;2022-12-13T07:02:30;101366.22;;;-8.58;100.00
71970;BME280;59838;52.152;5.436;2022-12-13T07:04:56;101363.69;;;-8.58;100.00
71970;BME280;59838;52.152;5.436;2022-12-13T07:07:24;101372.09;;;-8.58;100.00
71970;BME280;59838;52.152;5.436;2022-12-13T07:09:51;101378.81;;;-8.58;100.00
71970;BME280;59838;52.152;5.436;2022-12-13T07:12:18;101384.75;;;-8.59;100.00
71970;BME280;59838;52.152;5.436;2022-12-13T07:14:46;101379.66;;;-8.58;100.00
71970;BME280;59838;52.152;5.436;2022-12-13T07:17:12;101377.19;;;-8.59;100.00
71970;BME280;59838;52.152;5.436;2022-12-13T07:19:59;101367.25;;;-8.64;100.00
71970;BME280;59838;52.152;5.436;2022-12-13T07:22:26;101375.66;;;-8.65;100.00
71970;BME280;59838;52.152;5.436;2022-12-13T07:24:53;101378.19;;;-8.65;100.00
71970;BME280;59838;52.152;5.436;2022-12-13T07:27:19;101379.03;;;-8.65;100.00
71970;BME280;59838;52.152;5.436;2022-12-13T07:29:45;101387.44;;;-8.66;100.00
71970;BME280;59838;52.152;5.436;2022-12-13T07:32:12;101379.97;;;-8.69;100.00
71970;BME280;59838;52.152;5.436;2022-12-13T07:34:38;101381.72;;;-8.71;100.00
71970;BME280;59838;52.152;5.436;2022-12-13T07:37:04;101390.97;;;-8.71;100.00
71970;BME280;59838;52.152;5.436;2022-12-13T07:39:31;101393.41;;;-8.70;100.00
71970;BME280;59838;52.152;5.436;2022-12-13T07:41:57;101390.00;;;-8.67;100.00
71970;BME280;59838;52.152;5.436;2022-12-13T07:44:24;101399.19;;;-8.65;100.00
71970;BME280;59838;52.152;5.436;2022-12-13T07:46:50;101401.66;;;-8.63;100.00
71970;BME280;59838;52.152;5.436;2022-12-13T07:49:17;101405.78;;;-8.62;100.00
71970;BME280;59838;52.152;5.436;2022-12-13T07:51:44;101394.81;;;-8.59;100.00
71970;BME280;59838;52.152;5.436;2022-12-13T07:54:10;101401.44;;;-8.57;100.00
71970;BME280;59838;52.152;5.436;2022-12-13T07:56:37;101399.69;;;-8.53;100.00
71970;BME280;59838;52.152;5.436;2022-12-13T07:59:03;101395.41;;;-8.51;100.00
71970;BME280;59838;52.152;5.436;2022-12-13T08:01:31;101403.75;;;-8.49;100.00
71970;BME280;59838;52.152;5.436;2022-12-13T08:04:00;101396.09;;;-8.46;100.00
71970;BME280;59838;52.152;5.436;2022-12-13T08:06:27;101401.78;;;-8.41;100.00
71970;BME280;59838;52.152;5.436;2022-12-13T08:08:55;101416.72;;;-8.35;100.00
71970;BME280;59838;52.152;5.436;2022-12-13T08:11:21;101413.25;;;-8.31;100.00
71970;BME280;59838;52.152;5.436;2022-12-13T08:13:48;101406.31;;;-8.24;100.00
71970;BME280;59838;52.152;5.436;2022-12-13T08:16:14;101406.28;;;-8.22;100.00
71970;BME280;59838;52.152;5.436;2022-12-13T08:18:58;101417.94;;;-8.20;100.00
71970;BME280;59838;52.152;5.436;2022-12-13T08:21:35;101417.03;;;-8.17;100.00
71970;BME280;59838;52.152;5.436;2022-12-13T08:24:22;101408.44;;;-8.12;100.00
71970;BME280;59838;52.152;5.436;2022-12-13T08:26:48;101409.19;;;-8.08;100.00
71970;BME280;59838;52.152;5.436;2022-12-13T08:29:15;101406.50;;;-8.03;100.00
71970;BME280;59838;52.152;5.436;2022-12-13T08:32:00;101411.38;;;-7.97;100.00
71970;BME280;59838;52.152;5.436;2022-12-13T08:34:27;101415.31;;;-7.88;100.00
71970;BME280;59838;52.152;5.436;2022-12-13T08:36:53;101414.28;;;-7.83;100.00
71970;BME280;59838;52.152;5.436;2022-12-13T08:39:33;101422.50;;;-7.78;100.00
71970;BME280;59838;52.152;5.436;2022-12-13T08:42:03;101414.78;;;-7.73;100.00
71970;BME280;59838;52.152;5.436;2022-12-13T08:44:43;101425.59;;;-7.69;100.00
71970;BME280;59838;52.152;5.436;2022-12-13T08:47:09;101422.94;;;-7.65;100.00
71970;BME280;59838;52.152;5.436;2022-12-13T08:49:36;101414.34;;;-7.59;100.00
71970;BME280;59838;52.152;5.436;2022-12-13T08:52:02;101418.25;;;-7.50;100.00
71970;BME280;59838;52.152;5.436;2022-12-13T08:54:32;101415.53;;;-7.44;100.00
71970;BME280;59838;52.152;5.436;2022-12-13T08:56:58;101411.13;;;-7.39;100.00
71970;BME280;59838;52.152;5.436;2022-12-13T08:59:24;101409.28;;;-7.34;100.00
71970;BME280;59838;52.152;5.436;2022-12-13T09:01:51;101412.41;;;-7.27;100.00
71970;BME280;59838;52.152;5.436;2022-12-13T09:04:20;101416.44;;;-7.22;100.00
71970;BME280;59838;52.152;5.436;2022-12-13T09:06:57;101416.22;;;-7.15;100.00
71970;BME280;59838;52.152;5.436;2022-12-13T09:09:27;101413.50;;;-7.09;100.00
71970;BME280;59838;52.152;5.436;2022-12-13T09:11:54;101423.34;;;-7.03;100.00
71970;BME280;59838;52.152;5.436;2022-12-13T09:14:25;101417.31;;;-6.99;100.00
71970;BME280;59838;52.152;5.436;2022-12-13T09:17:00;101422.94;;;-6.91;100.00
71970;BME280;59838;52.152;5.436;2022-12-13T09:19:28;101414.34;;;-6.87;100.00
71970;BME280;59838;52.152;5.436;2022-12-13T09:22:02;101414.13;;;-6.81;100.00
71970;BME280;59838;52.152;5.436;2022-12-13T09:24:29;101416.44;;;-6.74;100.00
71970;BME280;59838;52.152;5.436;2022-12-13T09:27:05;101420.41;;;-6.67;100.00
71970;BME280;59838;52.152;5.436;2022-12-13T09:29:36;101426.84;;;-6.60;100.00
71970;BME280;59838;52.152;5.436;2022-12-13T09:32:03;101418.09;;;-6.51;100.00
71970;BME280;59838;52.152;5.436;2022-12-13T09:34:30;101418.56;;;-6.41;100.00
71970;BME280;59838;52.152;5.436;2022-12-13T09:36:58;101420.22;;;-6.40;100.00
71970;BME280;59838;52.152;5.436;2022-12-13T09:39:27;101426.69;;;-6.33;100.00
71970;BME280;59838;52.152;5.436;2022-12-13T09:41:57;101422.34;;;-6.30;100.00
71970;BME280;59838;52.152;5.436;2022-12-13T09:44:33;101420.41;;;-6.23;100.00
71970;BME280;59838;52.152;5.436;2022-12-13T09:47:21;101414.84;;;-6.11;100.00
71970;BME280;59838;52.152;5.436;2022-12-13T09:49:50;101406.91;;;-6.01;100.00
71970;BME280;59838;52.152;5.436;2022-12-13T09:52:20;101400.00;;;-5.98;100.00
71970;BME280;59838;52.152;5.436;2022-12-13T09:54:52;101403.88;;;-5.89;100.00
71970;BME280;59838;52.152;5.436;2022-12-13T09:57:26;101406.97;;;-5.82;100.00
71970;BME280;59838;52.152;5.436;2022-12-13T09:59:57;101404.13;;;-5.75;100.00
71970;BME280;59838;52.152;5.436;2022-12-13T10:02:29;101403.78;;;-5.67;100.00
71970;BME280;59838;52.152;5.436;2022-12-13T10:05:10;101393.34;;;-5.59;100.00
71970;BME280;59838;52.152;5.436;2022-12-13T10:07:51;101390.31;;;-5.47;100.00
71970;BME280;59838;52.152;5.436;2022-12-13T10:10:19;101387.03;;;-5.30;100.00
71970;BME280;59838;52.152;5.436;2022-12-13T10:12:52;101378.25;;;-5.21;100.00
71970;BME280;59838;52.152;5.436;2022-12-13T10:15:20;101383.72;;;-5.11;100.00
71970;BME280;59838;52.152;5.436;2022-12-13T10:17:48;101375.09;;;-5.07;100.00
71970;BME280;59838;52.152;5.436;2022-12-13T10:20:23;101370.63;;;-5.02;100.00
71970;BME280;59838;52.152;5.436;2022-12-13T10:22:53;101370.56;;;-5.01;100.00
71970;BME280;59838;52.152;5.436;2022-12-13T10:25:44;101361.06;;;-4.96;100.00
71970;BME280;59838;52.152;5.436;2022-12-13T10:28:17;101358.31;;;-4.91;100.00
71970;BME280;59838;52.152;5.436;2022-12-13T10:30:44;101361.47;;;-4.86;100.00
71970;BME280;59838;52.152;5.436;2022-12-13T10:33:46;101359.34;;;-4.76;100.00
71970;BME280;59838;52.152;5.436;2022-12-13T10:38:58;101356.38;;;-4.67;100.00
71970;BME280;59838;52.152;5.436;2022-12-13T10:41:33;101356.97;;;-4.62;100.00
71970;BME280;59838;52.152;5.436;2022-12-13T10:44:22;101356.53;;;-4.52;100.00
71970;BME280;59838;52.152;5.436;2022-12-13T10:47:00;101341.03;;;-4.46;100.00
71970;BME280;59838;52.152;5.436;2022-12-13T10:52:37;101346.81;;;-4.25;100.00
71970;BME280;59838;52.152;5.436;2022-12-13T10:55:31;101347.13;;;-4.14;100.00
71970;BME280;59838;52.152;5.436;2022-12-13T10:58:04;101344.34;;;-4.09;100.00
71970;BME280;59838;52.152;5.436;2022-12-13T11:03:03;101341.31;;;-3.98;100.00
71970;BME280;59838;52.152;5.436;2022-12-13T11:05:32;101341.81;;;-3.92;100.00
71970;BME280;59838;52.152;5.436;2022-12-13T11:10:39;101341.19;;;-3.79;100.00
71970;BME280;59838;52.152;5.436;2022-12-13T11:13:06;101335.16;;;-3.77;100.00
71970;BME280;59838;52.152;5.436;2022-12-13T11:15:36;101329.06;;;-3.74;100.00
71970;BME280;59838;52.152;5.436;2022-12-13T11:18:06;101330.56;;;-3.70;100.00
71970;BME280;59838;52.152;5.436;2022-12-13T11:20:36;101325.34;;;-3.67;100.00
71970;BME280;59838;52.152;5.436;2022-12-13T11:25:39;101327.50;;;-3.59;100.00
71970;BME280;59838;52.152;5.436;2022-12-13T11:31:20;101334.56;;;-3.49;100.00
71970;BME280;59838;52.152;5.436;2022-12-13T11:39:19;101323.91;;;-3.39;100.00
71970;BME280;59838;52.152;5.436;2022-12-13T11:41:53;101319.81;;;-3.42;100.00
71970;BME280;59838;52.152;5.436;2022-12-13T11:44:44;101308.59;;;-3.38;100.00
71970;BME280;59838;52.152;5.436;2022-12-13T11:47:21;101293.94;;;-3.33;100.00
71970;BME280;59838;52.152;5.436;2022-12-13T11:49:50;101303.84;;;-3.28;100.00
71970;BME280;59838;52.152;5.436;2022-12-13T11:52:22;101292.81;;;-3.27;100.00
71970;BME280;59838;52.152;5.436;2022-12-13T11:54:58;101290.41;;;-3.30;100.00
71970;BME280;59838;52.152;5.436;2022-12-13T12:00:19;101285.41;;;-3.32;100.00
71970;BME280;59838;52.152;5.436;2022-12-13T12:03:13;101293.03;;;-3.32;100.00
71970;BME280;59838;52.152;5.436;2022-12-13T12:05:46;101279.41;;;-3.31;100.00
71970;BME280;59838;52.152;5.436;2022-12-13T12:11:16;101282.47;;;-3.24;100.00
71970;BME280;59838;52.152;5.436;2022-12-13T12:13:49;101275.66;;;-3.23;100.00
71970;BME280;59838;52.152;5.436;2022-12-13T12:16:36;101278.94;;;-3.21;100.00
71970;BME280;59838;52.152;5.436;2022-12-13T12:19:11;101280.66;;;-3.22;100.00
71970;BME280;59838;52.152;5.436;2022-12-13T12:30:51;101289.44;;;-3.12;100.00
71970;BME280;59838;52.152;5.436;2022-12-13T12:33:49;101291.81;;;-3.08;100.00
71970;BME280;59838;52.152;5.436;2022-12-13T12:36:47;101288.28;;;-3.06;100.00
71970;BME280;59838;52.152;5.436;2022-12-13T12:39:53;101294.03;;;-3.02;100.00
71970;BME280;59838;52.152;5.436;2022-12-13T12:45:46;101292.03;;;-2.97;100.00
71970;BME280;59838;52.152;5.436;2022-12-13T12:51:31;101285.72;;;-2.90;100.00
71970;BME280;59838;52.152;5.436;2022-12-13T12:54:25;101286.47;;;-2.88;100.00
71970;BME280;59838;52.152;5.436;2022-12-13T13:00:19;101278.00;;;-2.88;100.00
71970;BME280;59838;52.152;5.436;2022-12-13T13:03:13;101274.66;;;-2.89;100.00
71970;BME280;59838;52.152;5.436;2022-12-13T13:11:22;101258.81;;;-2.94;100.00
71970;BME280;59838;52.152;5.436;2022-12-13T13:21:42;101247.44;;;-3.03;100.00
71970;BME280;59838;52.152;5.436;2022-12-13T13:26:41;101244.06;;;-3.03;100.00
71970;BME280;59838;52.152;5.436;2022-12-13T13:37:53;101251.88;;;-3.06;100.00
71970;BME280;59838;52.152;5.436;2022-12-13T13:40:37;101250.25;;;-3.07;100.00
71970;BME280;59838;52.152;5.436;2022-12-13T13:45:52;101238.44;;;-3.08;100.00
71970;BME280;59838;52.152;5.436;2022-12-13T14:06:04;101215.56;;;-3.08;100.00
71970;BME280;59838;52.152;5.436;2022-12-13T14:08:39;101216.72;;;-3.14;100.00
71970;BME280;59838;52.152;5.436;2022-12-13T14:22:10;101213.88;;;-3.24;100.00
71970;BME280;59838;52.152;5.436;2022-12-13T14:25:13;101213.19;;;-3.27;100.00
71970;BME280;59838;52.152;5.436;2022-12-13T14:28:07;101221.66;;;-3.27;100.00
71970;BME280;59838;52.152;5.436;2022-12-13T14:30:40;101220.00;;;-3.28;100.00
71970;BME280;59838;52.152;5.436;2022-12-13T14:33:24;101214.75;;;-3.25;100.00
71970;BME280;59838;52.152;5.436;2022-12-13T14:35:56;101204.75;;;-3.28;100.00
71970;BME280;59838;52.152;5.436;2022-12-13T14:38:28;101211.81;;;-3.33;100.00
71970;BME280;59838;52.152;5.436;2022-12-13T14:40:58;101206.91;;;-3.36;100.00
71970;BME280;59838;52.152;5.436;2022-12-13T14:43:28;101201.16;;;-3.40;100.00
71970;BME280;59838;52.152;5.436;2022-12-13T14:45:57;101209.59;;;-3.39;100.00
71970;BME280;59838;52.152;5.436;2022-12-13T14:48:25;101211.09;;;-3.35;100.00
71970;BME280;59838;52.152;5.436;2022-12-13T14:50:55;101215.50;;;-3.39;100.00
71970;BME280;59838;52.152;5.436;2022-12-13T14:56:06;101212.69;;;-3.50;100.00
71970;BME280;59838;52.152;5.436;2022-12-13T14:58:33;101208.63;;;-3.53;100.00
71970;BME280;59838;52.152;5.436;2022-12-13T15:01:04;101206.81;;;-3.51;100.00
71970;BME280;59838;52.152;5.436;2022-12-13T15:03:30;101204.28;;;-3.51;100.00